SpazioLink.com il tuo mini portale

Terremoti in Italia, posizione geografica

Spaziolink il MiniPortale

Home Sfondi Cerca SuperEnalotto Posizione navi Terremoti Directory Video Forum Giochi Meteo Gifs Software
Lista dei terremoti in Italia in tempo reale dopo l'elaborazione dei valori rilevati dai sensori dislocati nelle zone interessate, comprendenti gli eventi sismici di elevata magnitudo sull'intero globo, per visualizzare la posizione dell'epicentro su Google Maps cliccare sul nome del luogo evidenziato in blu.
DATA ORA MAG ≥ 2 ZONA REGIONE LAT LONG PROF km
15/11/2019 03:28:15 ML 2.3 2 km a est di Artena (RM) Lazio 41.74 12.95 11.3
15/11/2019 03:24:57 ML 2.2 Tirreno Meridionale (MARE) Mare 39.70 15.44 15.5
15/11/2019 02:09:50 ML 2.4 Costa Siciliana nord-orientale (Messina) Mare 38.32 15.32 128.0
15/11/2019 01:59:07 ML 2.4 4 km nord-est Colonna (RM) Lazio 41.87 12.77 10.5
14/11/2019 22:13:00 Mwp 6.0 Indonesia (Sea) Mondo 1.52 126.33 69.1
14/11/2019 17:17:43 Mwp 7.0 Indonesia (Sea) Mondo 1.56 126.39 59.0
14/11/2019 15:56:04 ML 2.2 Tirreno Meridionale (MARE) Mare 39.73 15.45 7.1
14/11/2019 15:45:11 ML 2.9 8 km a sud-est di Strongoli (KR) Calabria 39.22 17.13 10.2
14/11/2019 15:43:32 ML 2.4 3 km nord-est Capitignano (AQ) Abruzzo 42.54 13.33 13.5
14/11/2019 10:55:06 ML 3.2 2 km nord-est Capitignano (AQ) Abruzzo 42.53 13.32 15.0
14/11/2019 08:31:24 ML 2.2 10 km a est di San Giovanni Rotondo (FG) Puglia 41.73 15.84 13.7
13/11/2019 19:17:54 ML 2.3 Tirreno Meridionale (MARE) Mare 39.71 15.44 8.4
13/11/2019 14:26:11 ML 3.1 3 km a nord-ovest di Milo (CT) Sicilia 37.75 15.10 6.6
13/11/2019 11:25:29 ML 2.6 5 km a sud-ovest di Delianuova (RC) Calabria 38.20 15.90 11.7
13/11/2019 09:09:50 ML 2.7 Tirreno Meridionale (MARE) Mare 38.41 13.73 1.7
13/11/2019 07:09:44 ML 2.6 Tirreno Meridionale (MARE) Mare 39.68 15.38 12.0
13/11/2019 05:31:13 ML 2.3 5 km a nord-ovest di Rabbi (TN) Trentino Alto Adige 46.43 10.79 11.0
13/11/2019 03:44:45 ML 2.1 Costa Molisana (Campobasso) Mare 42.14 15.00 6.3
13/11/2019 03:43:06 ML 2.3 3 km nord-est Colonna (RM) Lazio 41.86 12.77 9.3
12/11/2019 22:11:18 ML 2.2 Tirreno Meridionale (MARE) Mare 39.73 15.47 7.5
12/11/2019 20:11:19 ML 2.4 2 km a nord di Montegranaro (FM) Marche 43.25 13.64 38.6
12/11/2019 19:52:36 ML 2.2 7 km a sud di Lasa (BZ) Trentino Alto Adige 46.56 10.69 9.3
12/11/2019 15:36:46 ML 2.3 Confine Italia-Svizzera (SVIZZERA) Mondo 46.26 7.40 14.2
12/11/2019 10:52:03 ML 2.1 2 km a nord-ovest di Ussita (MC) Marche 42.96 13.12 12.7
12/11/2019 08:02:13 ML 2.0 3 km a ovest di Acquasanta Terme (AP) Marche 42.77 13.38 19.4
12/11/2019 08:00:45 ML 2.6 11 km a sud-est di Maletto (CT) Sicilia 37.77 14.97 19.6
12/11/2019 03:01:09 ML 2.0 Confine Italia-Svizzera (SVIZZERA) Mondo 46.27 7.40 10.5
12/11/2019 00:03:29 Mwp 6.1 Tonga Islands (Sea: Tonga) Mondo -18.85 -175.36 10.2
11/11/2019 20:35:07 ML 2.2 Confine Italia-Svizzera (SVIZZERA) Mondo 46.25 7.41 10.9
11/11/2019 11:52:45 mb 5.0 France Mondo 44.56 4.63 10.9
11/11/2019 10:00:08 Md 2.0 Svizzera (SVIZZERA) Mondo 46.24 7.29 6.6
10/11/2019 17:12:15 ML 2.0 Confine Italia-Svizzera (SVIZZERA) Mondo 46.25 7.36 9.7
10/11/2019 14:17:57 ML 2.0 6 km a sud di Caltagirone (CT) Sicilia 37.19 14.53 24.7
10/11/2019 13:48:33 ML 2.5 Tirreno Meridionale (MARE) Mare 38.79 15.51 182.1
10/11/2019 01:11:04 ML 2.3 4 km a sud-ovest di Castelsantangelo sul Nera (MC) Marche 42.88 13.12 10.0
09/11/2019 23:46:55 ML 2.0 1 km a sud-est di Granze (PD) Mondo 45.15 11.72 6.9
09/11/2019 15:55:13 ML 2.6 5 km a est di Balsorano (AQ) Abruzzo 41.79 13.61 11.1
09/11/2019 13:43:43 ML 2.4 3 km a sud-ovest di Velletri (RM) Lazio 41.67 12.75 9.4
09/11/2019 05:56:34 ML 2.4 4 km a sud-est di Balsorano (AQ) Abruzzo 41.78 13.59 10.4
09/11/2019 05:45:28 ML 2.9 Costa Calabra sud-orientale (Reggio di Calabria) Mare 37.90 16.37 31.5
09/11/2019 01:16:25 ML 2.3 5 km nord-est Borgo San Lorenzo (FI) Toscana 43.98 11.44 7.7
08/11/2019 22:20:26 ML 2.0 4 km a est di Pizzoli (AQ) Abruzzo 42.45 13.34 10.1
08/11/2019 20:07:45 ML 2.3 4 km a sud-est di Balsorano (AQ) Abruzzo 41.78 13.59 10.8
08/11/2019 12:13:38 ML 2.2 3 km a ovest di Francolise (CE) Campania 41.20 14.03 3.9
08/11/2019 11:44:45 Mwp 6.4 Fiji Islands region (Sea: Fiji) Mondo -21.93 -179.44 591.4
08/11/2019 11:43:24 ML 2.6 3 km a sud-est di Balsorano (AQ) Abruzzo 41.78 13.59 12.8
08/11/2019 10:41:13 Mwp 6.0 Tonga (Sea) Mondo -15.90 -172.92 18.0
08/11/2019 07:27:25 ML 2.5 Costa Marchigiana Maceratese (Macerata) Mare 43.53 13.79 7.5
08/11/2019 05:38:27 ML 2.1 4 km a nord-ovest di Pescosolido (FR) Lazio 41.77 13.62 13.6
08/11/2019 04:32:09 ML 2.0 4 km a sud-est di MazzarrĂ  Sant'Andrea (ME) Sicilia 38.05 15.15 4.9
- traduzioni - freegames - frasi - subnet mask - partners - ipcheck - pagerank - wi-fi - barzellette - favicon - speedtest - programmone - calendariofeste - screenmates -
Locations of visitors to this page